Dewalt, Texas
Current Conditions -  °F | °C
As of 5:53 AM on Monday 20 Oct 2014 (Local Time) from KSGR Reporting Station
Clear Clear  
Wind Chill: 66°   Ceiling: Unl
Heat Index: 66°   Visibility: 10mi
Dew Point: 60°   Wind: 5mph
Humidity: 81%   Direction: 30°NNE
Pressure: 29.99"   Gusts: NA
Location:  29.5665°N, 95.6214°W
Report Text: KSGR 201053Z 03004KT 10SM CLR 19/16 A2999 RMK AO2 SLP158 T01890156
Loading
Personal Weather Stations






























Interactive Weather Map
Tropical Storm Tracking
New forecast layout! Learn more

10-Day Weather Forecast

Advertisements
Track Severe Weather on mobile